createdAt,value
2022-12-28T00:02:19.287Z,6.90
2022-12-28T00:04:47.121Z,7.40
2022-12-28T00:07:14.809Z,7.27
2022-12-28T00:09:42.552Z,7.83
2022-12-28T00:12:10.270Z,7.53
2022-12-28T00:14:39.372Z,8.20
2022-12-28T00:17:07.109Z,7.37
2022-12-28T00:19:34.928Z,7.90
2022-12-28T00:22:02.818Z,7.33
2022-12-28T00:24:30.507Z,7.90
2022-12-28T00:26:58.148Z,7.43
2022-12-28T00:29:25.948Z,8.60
2022-12-28T00:31:55.148Z,8.53
2022-12-28T00:34:22.959Z,7.43
2022-12-28T00:37:10.103Z,7.73
2022-12-28T00:39:39.488Z,7.80
2022-12-28T00:42:07.259Z,7.67
2022-12-28T00:44:34.931Z,7.63
2022-12-28T00:47:03.997Z,7.80
2022-12-28T00:49:31.726Z,8.17
2022-12-28T00:51:59.366Z,7.87
2022-12-28T00:54:27.113Z,7.77
2022-12-28T00:56:54.841Z,7.60
2022-12-28T00:59:22.557Z,7.87
2022-12-28T01:01:50.307Z,8.50
2022-12-28T01:04:19.498Z,7.77
2022-12-28T01:06:47.167Z,7.40
2022-12-28T01:09:14.866Z,8.30
2022-12-28T01:11:42.580Z,7.63
2022-12-28T01:14:10.429Z,7.50
2022-12-28T01:16:38.474Z,7.33
2022-12-28T01:19:07.811Z,7.90
2022-12-28T01:21:37.734Z,8.43
2022-12-28T01:24:08.068Z,7.40
2022-12-28T01:26:36.478Z,8.10
2022-12-28T01:29:04.667Z,8.33
2022-12-28T01:31:32.836Z,8.20
2022-12-28T01:34:00.848Z,7.53
2022-12-28T01:36:32.135Z,7.80
2022-12-28T01:39:04.649Z,8.17
2022-12-28T01:41:34.583Z,8.77
2022-12-28T01:44:45.064Z,7.90
2022-12-28T01:47:19.586Z,7.70
2022-12-28T01:49:56.222Z,7.17
2022-12-28T01:52:30.997Z,7.30
2022-12-28T01:55:06.044Z,7.70
2022-12-28T01:57:38.986Z,7.37
2022-12-28T02:00:10.869Z,8.30
2022-12-28T02:02:39.869Z,8.27
2022-12-28T02:05:09.093Z,8.33
2022-12-28T02:07:43.550Z,7.97
2022-12-28T02:10:41.173Z,7.90
2022-12-28T02:13:01.590Z,8.40
2022-12-28T02:15:29.351Z,8.80
2022-12-28T02:17:58.082Z,7.33
2022-12-28T02:20:34.457Z,8.03
2022-12-28T02:23:28.468Z,7.63
2022-12-28T02:26:28.112Z,7.77
2022-12-28T02:29:22.885Z,7.50
2022-12-28T02:31:59.373Z,7.57
2022-12-28T02:34:33.479Z,8.03
2022-12-28T02:37:04.982Z,7.10
2022-12-28T02:39:38.533Z,7.27
2022-12-28T02:42:09.927Z,7.20
2022-12-28T02:44:57.714Z,7.57
2022-12-28T02:47:43.072Z,6.53
2022-12-28T02:50:16.914Z,6.87
2022-12-28T02:53:12.309Z,7.40
2022-12-28T02:56:08.565Z,6.80
2022-12-28T02:59:05.985Z,6.70
2022-12-28T03:01:59.333Z,6.23
2022-12-28T03:04:39.465Z,5.90
2022-12-28T03:07:31.355Z,5.63
2022-12-28T03:10:07.630Z,6.57
2022-12-28T03:12:41.723Z,5.77
2022-12-28T03:15:30.008Z,6.03
2022-12-28T03:18:23.269Z,5.47
2022-12-28T03:21:10.755Z,5.80
2022-12-28T03:23:59.472Z,6.20
2022-12-28T03:26:47.286Z,5.53
2022-12-28T03:29:36.653Z,5.67
2022-12-28T03:32:05.162Z,5.83
2022-12-28T03:34:55.240Z,6.07
2022-12-28T03:37:28.782Z,5.83
2022-12-28T03:40:03.349Z,6.77
2022-12-28T03:42:53.716Z,5.80
2022-12-28T03:45:46.340Z,5.70
2022-12-28T03:48:13.994Z,6.10
2022-12-28T03:50:46.118Z,5.83
2022-12-28T03:53:14.296Z,5.30
2022-12-28T03:55:43.299Z,5.77
2022-12-28T03:58:11.246Z,5.73
2022-12-28T04:00:38.956Z,5.87
2022-12-28T04:03:07.100Z,5.57
2022-12-28T04:05:34.957Z,5.67
2022-12-28T04:08:04.091Z,5.60
2022-12-28T04:10:31.735Z,5.90
2022-12-28T04:12:59.432Z,5.53
2022-12-28T04:15:27.195Z,5.67
2022-12-28T04:17:54.928Z,5.10
2022-12-28T04:20:22.691Z,5.57
2022-12-28T04:22:50.387Z,5.23
2022-12-28T04:25:19.913Z,5.10
2022-12-28T04:27:47.608Z,4.93
2022-12-28T04:30:15.471Z,4.30
2022-12-28T04:32:43.229Z,5.10
2022-12-28T04:35:10.958Z,5.03
2022-12-28T04:37:38.974Z,5.13
2022-12-28T04:40:07.886Z,4.80
2022-12-28T04:42:36.909Z,4.60
2022-12-28T04:45:05.129Z,4.93
2022-12-28T04:47:32.876Z,6.10
2022-12-28T04:50:00.554Z,4.80
2022-12-28T04:52:28.313Z,5.17
2022-12-28T04:54:55.997Z,4.60
2022-12-28T04:57:23.814Z,4.40
2022-12-28T04:59:52.878Z,4.50
2022-12-28T05:02:20.711Z,4.33
2022-12-28T05:04:48.429Z,4.10
2022-12-28T05:07:21.270Z,4.03
2022-12-28T05:09:49.043Z,3.93
2022-12-28T05:12:16.712Z,3.80
2022-12-28T05:14:44.736Z,4.10
2022-12-28T05:17:13.799Z,3.80
2022-12-28T05:19:41.948Z,3.67
2022-12-28T05:22:11.882Z,3.97
2022-12-28T05:24:39.586Z,3.87
2022-12-28T05:27:07.271Z,3.87
2022-12-28T05:29:34.958Z,4.27
2022-12-28T05:32:02.631Z,3.57
2022-12-28T05:34:31.670Z,4.03
2022-12-28T05:36:59.444Z,3.87
2022-12-28T05:39:27.158Z,3.50
2022-12-28T05:41:54.818Z,3.87
2022-12-28T05:44:22.531Z,3.47
2022-12-28T05:46:50.213Z,3.93
2022-12-28T05:49:17.947Z,3.77
2022-12-28T05:51:53.089Z,3.80
2022-12-28T05:54:23.705Z,3.47
2022-12-28T05:56:52.399Z,3.77
2022-12-28T05:59:20.092Z,4.30
2022-12-28T06:01:47.900Z,3.17
2022-12-28T06:04:17.914Z,3.80
2022-12-28T06:06:48.330Z,3.50
2022-12-28T06:09:18.811Z,3.50
2022-12-28T06:11:50.089Z,3.37
2022-12-28T06:14:17.733Z,3.77
2022-12-28T06:16:46.002Z,3.90
2022-12-28T06:19:15.451Z,3.60
2022-12-28T06:21:43.609Z,3.80
2022-12-28T06:24:13.887Z,3.67
2022-12-28T06:26:42.369Z,3.30
2022-12-28T06:29:10.535Z,3.30
2022-12-28T06:31:40.628Z,3.70
2022-12-28T06:34:09.894Z,3.10
2022-12-28T06:36:39.440Z,3.40
2022-12-28T06:39:09.534Z,4.17
2022-12-28T06:41:39.562Z,3.57
2022-12-28T06:44:08.336Z,3.90
2022-12-28T06:46:36.089Z,3.63
2022-12-28T06:49:03.922Z,3.33
2022-12-28T06:51:36.156Z,3.33
2022-12-28T06:54:04.002Z,3.40
2022-12-28T06:56:34.059Z,3.10
2022-12-28T06:59:04.325Z,2.70
2022-12-28T07:01:34.654Z,3.90
2022-12-28T07:04:03.715Z,2.83
2022-12-28T07:06:36.529Z,2.70
2022-12-28T07:09:06.340Z,3.20
2022-12-28T07:11:34.482Z,2.73
2022-12-28T07:14:03.720Z,2.97
2022-12-28T07:19:06.868Z,3.10
2022-12-28T07:21:37.103Z,3.10
2022-12-28T07:24:06.172Z,2.87
2022-12-28T07:26:36.433Z,2.90
2022-12-28T07:29:07.504Z,3.03
2022-12-28T07:31:43.605Z,3.03
2022-12-28T07:34:12.780Z,3.00
2022-12-28T07:36:40.638Z,3.20
2022-12-28T07:39:08.388Z,2.80
2022-12-28T07:41:37.342Z,3.00
2022-12-28T07:44:07.005Z,2.80
2022-12-28T07:46:37.317Z,2.90
2022-12-28T07:49:05.336Z,2.93
2022-12-28T07:51:34.928Z,2.50
2022-12-28T07:54:03.015Z,2.57
2022-12-28T07:59:01.185Z,2.30
2022-12-28T08:01:32.195Z,2.43
2022-12-28T08:04:02.239Z,2.80
2022-12-28T08:06:31.837Z,2.50
2022-12-28T08:09:01.246Z,2.30
2022-12-28T08:11:30.623Z,2.93
2022-12-28T08:13:59.703Z,2.50
2022-12-28T08:16:29.230Z,2.13
2022-12-28T08:18:58.473Z,2.20
2022-12-28T08:21:28.308Z,2.50
2022-12-28T08:23:56.956Z,2.87
2022-12-28T08:26:26.666Z,2.47
2022-12-28T08:28:56.531Z,2.20
2022-12-28T08:31:26.242Z,1.87
2022-12-28T08:33:55.316Z,2.37
2022-12-28T08:36:24.688Z,2.97
2022-12-28T08:38:52.570Z,2.70
2022-12-28T08:41:22.487Z,2.30
2022-12-28T08:43:51.356Z,3.13
2022-12-28T08:46:21.807Z,2.60
2022-12-28T08:48:50.777Z,2.67
2022-12-28T08:51:20.492Z,2.60
2022-12-28T08:53:50.116Z,2.67
2022-12-28T08:56:32.193Z,2.77
2022-12-28T08:59:00.962Z,2.67
2022-12-28T09:01:34.731Z,2.10
2022-12-28T09:04:07.716Z,2.57
2022-12-28T09:06:37.429Z,5.43
2022-12-28T09:09:08.690Z,3.73
2022-12-28T09:11:37.510Z,3.27
2022-12-28T09:14:09.779Z,5.43
2022-12-28T09:16:40.566Z,3.27
2022-12-28T09:19:10.338Z,3.17
2022-12-28T09:21:39.888Z,3.03
2022-12-28T09:24:09.547Z,2.90
2022-12-28T09:26:39.246Z,3.43
2022-12-28T09:29:09.635Z,3.20
2022-12-28T09:31:38.548Z,2.30
2022-12-28T09:36:54.764Z,2.80
2022-12-28T09:39:25.066Z,2.63
2022-12-28T09:41:56.369Z,3.00
2022-12-28T09:44:37.575Z,2.67
2022-12-28T09:47:17.280Z,2.17
2022-12-28T09:49:51.538Z,1.90
2022-12-28T09:52:28.423Z,2.10
2022-12-28T09:55:05.208Z,1.70
2022-12-28T09:57:38.076Z,2.10
2022-12-28T10:00:08.871Z,1.90
2022-12-28T10:02:39.286Z,2.40
2022-12-28T10:05:08.383Z,1.80
2022-12-28T10:07:37.807Z,1.80
2022-12-28T10:10:07.611Z,1.70
2022-12-28T10:12:36.166Z,1.60
2022-12-28T10:15:07.507Z,1.30
2022-12-28T10:17:35.265Z,1.90
2022-12-28T10:20:03.044Z,1.80
2022-12-28T10:22:42.409Z,1.70
2022-12-28T10:25:17.869Z,2.00
2022-12-28T10:27:45.695Z,3.47
2022-12-28T10:30:20.380Z,2.83
2022-12-28T10:32:59.493Z,1.50
2022-12-28T10:35:42.368Z,1.30
2022-12-28T10:38:22.092Z,1.07
2022-12-28T10:40:59.496Z,1.10
2022-12-28T10:43:30.130Z,1.43
2022-12-28T10:45:59.425Z,1.13
2022-12-28T10:48:30.293Z,1.40
2022-12-28T10:51:01.487Z,1.20
2022-12-28T10:53:32.883Z,1.20
2022-12-28T10:56:20.900Z,1.93
2022-12-28T10:58:49.967Z,1.80
2022-12-28T11:01:20.887Z,1.53
2022-12-28T11:04:01.302Z,1.67
2022-12-28T11:06:30.892Z,1.33
2022-12-28T11:09:17.609Z,1.70
2022-12-28T11:11:47.973Z,1.30
2022-12-28T11:14:26.544Z,1.70
2022-12-28T11:16:54.348Z,1.30
2022-12-28T11:19:23.292Z,1.70
2022-12-28T11:21:51.508Z,1.73
2022-12-28T11:24:21.380Z,1.80
2022-12-28T11:26:51.481Z,1.87
2022-12-28T11:29:20.438Z,2.73
2022-12-28T11:31:52.579Z,1.67
2022-12-28T11:34:24.513Z,1.27
2022-12-28T11:36:52.727Z,1.47
2022-12-28T11:39:43.734Z,1.60
2022-12-28T11:42:39.169Z,1.23
2022-12-28T11:45:02.750Z,1.30
2022-12-28T11:47:35.556Z,1.17
2022-12-28T11:50:42.120Z,1.27
2022-12-28T11:53:24.076Z,1.23
2022-12-28T11:56:07.523Z,1.70
2022-12-28T11:59:21.583Z,1.30
2022-12-28T12:01:57.546Z,1.27
2022-12-28T12:04:39.543Z,1.57
2022-12-28T12:07:31.295Z,1.60
2022-12-28T12:10:33.935Z,1.20
2022-12-28T12:13:05.204Z,1.70
2022-12-28T12:15:41.116Z,2.00
2022-12-28T12:18:19.438Z,2.37
2022-12-28T12:20:53.256Z,1.83
2022-12-28T12:23:29.142Z,1.53
2022-12-28T12:26:00.874Z,1.43
2022-12-28T12:28:35.808Z,1.17
2022-12-28T12:31:16.823Z,1.47
2022-12-28T12:33:49.441Z,1.53
2022-12-28T12:36:40.785Z,1.53
2022-12-28T12:39:24.492Z,1.90
2022-12-28T12:42:02.823Z,2.13
2022-12-28T12:44:36.216Z,1.90
2022-12-28T12:47:21.319Z,2.03
2022-12-28T12:50:00.832Z,2.10
2022-12-28T12:52:42.404Z,2.00
2022-12-28T12:55:23.513Z,2.10
2022-12-28T12:57:59.282Z,2.00
2022-12-28T13:00:39.112Z,2.00
2022-12-28T13:03:33.336Z,1.43
2022-12-28T13:06:01.338Z,1.70
2022-12-28T13:08:34.963Z,1.73
2022-12-28T13:11:04.270Z,1.43
2022-12-28T13:13:35.195Z,1.40
2022-12-28T13:16:06.165Z,1.67
2022-12-28T13:18:50.666Z,1.43
2022-12-28T13:21:21.294Z,1.60
2022-12-28T13:23:49.695Z,1.23
2022-12-28T13:26:17.984Z,1.90
2022-12-28T13:28:52.464Z,1.90
2022-12-28T13:31:23.466Z,2.33
2022-12-28T13:34:00.986Z,1.47
2022-12-28T13:36:29.028Z,1.60
2022-12-28T13:39:12.986Z,1.50
2022-12-28T13:41:49.355Z,1.03
2022-12-28T13:44:29.565Z,1.23
2022-12-28T13:47:02.751Z,1.40
2022-12-28T13:49:36.752Z,1.20
2022-12-28T13:52:10.051Z,1.77
2022-12-28T13:54:38.864Z,1.40
2022-12-28T13:57:44.641Z,1.20
2022-12-28T13:59:56.816Z,1.40
2022-12-28T14:02:27.364Z,0.97
2022-12-28T14:04:56.936Z,1.20
2022-12-28T14:07:30.269Z,1.10
2022-12-28T14:09:58.995Z,1.20
2022-12-28T14:12:28.067Z,1.17
2022-12-28T14:14:56.234Z,1.40
2022-12-28T14:17:25.469Z,1.00
2022-12-28T14:19:58.480Z,1.00
2022-12-28T14:22:29.760Z,1.30
2022-12-28T14:25:07.183Z,1.23
2022-12-28T14:27:37.884Z,1.27
2022-12-28T14:30:08.829Z,0.90
2022-12-28T14:32:42.713Z,1.20
2022-12-28T14:35:19.301Z,1.03
2022-12-28T14:37:51.079Z,1.20
2022-12-28T14:40:27.380Z,1.00
2022-12-28T14:42:56.845Z,1.60
2022-12-28T14:48:32.162Z,1.20
2022-12-28T14:51:03.478Z,1.20
2022-12-28T14:53:32.160Z,1.57
2022-12-28T14:56:07.623Z,1.13
2022-12-28T14:58:50.466Z,1.10
2022-12-28T15:01:20.991Z,1.63
2022-12-28T15:03:51.261Z,1.57
2022-12-28T15:06:20.814Z,1.10
2022-12-28T15:08:50.005Z,1.60
2022-12-28T15:11:19.015Z,1.57
2022-12-28T15:13:47.276Z,1.83
2022-12-28T15:16:17.854Z,1.67
2022-12-28T15:18:48.201Z,1.63
2022-12-28T15:21:18.446Z,1.50
2022-12-28T15:23:50.118Z,1.57
2022-12-28T15:26:17.804Z,1.43
2022-12-28T15:28:45.605Z,1.37
2022-12-28T15:31:16.965Z,1.60
2022-12-28T15:33:45.356Z,1.17
2022-12-28T15:36:17.794Z,1.23
2022-12-28T15:38:46.144Z,1.07
2022-12-28T15:41:29.402Z,1.07
2022-12-28T15:43:57.154Z,1.30
2022-12-28T15:46:25.109Z,1.10
2022-12-28T15:48:52.922Z,1.83
2022-12-28T15:51:20.859Z,1.93
2022-12-28T15:53:48.593Z,2.93
2022-12-28T15:56:23.737Z,2.40
2022-12-28T15:58:54.675Z,1.50
2022-12-28T16:01:23.052Z,1.60
2022-12-28T16:03:51.230Z,1.80
2022-12-28T16:06:19.317Z,1.90
2022-12-28T16:08:47.286Z,1.63
2022-12-28T16:11:16.882Z,1.67
2022-12-28T16:13:51.717Z,1.60
2022-12-28T16:16:20.168Z,1.60
2022-12-28T16:18:48.159Z,1.50
2022-12-28T16:21:16.570Z,1.30
2022-12-28T16:23:45.518Z,1.33
2022-12-28T16:26:14.135Z,1.70
2022-12-28T16:28:42.248Z,1.53
2022-12-28T16:31:22.267Z,1.10
2022-12-28T16:33:53.498Z,1.73
2022-12-28T16:36:21.622Z,1.90
2022-12-28T16:38:49.652Z,1.40
2022-12-28T16:41:17.980Z,1.70
2022-12-28T16:43:46.513Z,1.50
2022-12-28T16:46:16.270Z,1.97
2022-12-28T16:48:44.379Z,2.10
2022-12-28T16:51:13.197Z,1.47
2022-12-28T16:53:41.086Z,2.30
2022-12-28T16:56:11.510Z,6.50
2022-12-28T16:58:39.216Z,4.20
2022-12-28T17:01:09.277Z,2.73
2022-12-28T17:03:39.781Z,2.13
2022-12-28T17:06:08.159Z,2.07
2022-12-28T17:08:36.700Z,1.87
2022-12-28T17:11:09.221Z,1.60
2022-12-28T17:13:37.211Z,1.63
2022-12-28T17:16:06.186Z,2.37
2022-12-28T17:18:33.996Z,2.13
2022-12-28T17:21:06.874Z,2.20
2022-12-28T17:23:34.994Z,2.53
2022-12-28T17:26:02.671Z,1.80
2022-12-28T17:28:30.513Z,1.83
2022-12-28T17:31:05.966Z,1.90
2022-12-28T17:33:39.187Z,3.10
2022-12-28T17:36:09.649Z,4.10
2022-12-28T17:38:38.628Z,4.77
2022-12-28T17:41:11.350Z,6.20
2022-12-28T17:43:39.516Z,6.53
2022-12-28T17:46:07.872Z,2.80
2022-12-28T17:48:35.631Z,1.73
2022-12-28T17:51:10.866Z,1.90
2022-12-28T17:53:41.048Z,2.17
2022-12-28T17:56:10.975Z,1.90
2022-12-28T17:58:39.082Z,2.00
2022-12-28T18:01:07.497Z,1.50
2022-12-28T18:03:35.713Z,1.90
2022-12-28T18:06:03.519Z,2.20
2022-12-28T18:08:31.338Z,2.47
2022-12-28T18:11:00.751Z,3.17
2022-12-28T18:13:31.667Z,2.50
2022-12-28T18:15:59.791Z,3.00
2022-12-28T18:18:27.600Z,4.23
2022-12-28T18:20:59.249Z,4.03
2022-12-28T18:23:28.096Z,6.30
2022-12-28T18:26:03.444Z,6.03
2022-12-28T18:28:31.631Z,8.37
2022-12-28T18:31:01.944Z,10.00
2022-12-28T18:33:30.842Z,9.20
2022-12-28T18:36:02.898Z,7.47
2022-12-28T18:38:30.833Z,8.17
2022-12-28T18:41:00.263Z,6.13
2022-12-28T18:43:29.743Z,3.60
2022-12-28T18:45:59.597Z,2.57
2022-12-28T18:48:28.451Z,1.87
2022-12-28T18:50:57.475Z,2.07
2022-12-28T18:53:26.158Z,1.67
2022-12-28T18:55:58.335Z,1.67
2022-12-28T18:58:26.168Z,1.90
2022-12-28T19:00:55.470Z,2.10
2022-12-28T19:03:23.374Z,2.17
2022-12-28T19:06:02.562Z,2.37
2022-12-28T19:08:31.317Z,2.00
2022-12-28T19:10:59.004Z,2.07
2022-12-28T19:13:26.733Z,2.30
2022-12-28T19:15:55.935Z,1.70
2022-12-28T19:18:23.684Z,2.07
2022-12-28T19:20:56.993Z,1.63
2022-12-28T19:23:25.089Z,2.00
2022-12-28T19:25:54.616Z,2.20
2022-12-28T19:28:22.391Z,1.77
2022-12-28T19:30:51.610Z,2.20
2022-12-28T19:33:20.765Z,1.90
2022-12-28T19:35:48.653Z,2.63
2022-12-28T19:38:16.386Z,2.07
2022-12-28T19:40:44.070Z,1.77
2022-12-28T19:43:12.893Z,1.80
2022-12-28T19:45:40.616Z,1.87
2022-12-28T19:48:08.303Z,1.97
2022-12-28T19:50:37.810Z,1.90
2022-12-28T19:53:05.821Z,2.03
2022-12-28T19:55:34.428Z,2.07
2022-12-28T19:58:02.214Z,1.90
2022-12-28T20:00:29.973Z,2.00
2022-12-28T20:02:57.847Z,2.27
2022-12-28T20:05:26.095Z,1.60
2022-12-28T20:07:55.131Z,1.97
2022-12-28T20:10:22.833Z,1.97
2022-12-28T20:12:50.541Z,2.00
2022-12-28T20:15:18.304Z,1.90
2022-12-28T20:17:47.383Z,1.83
2022-12-28T20:20:17.083Z,2.00
2022-12-28T20:22:46.112Z,1.70
2022-12-28T20:25:17.046Z,1.90
2022-12-28T20:27:44.804Z,2.00
2022-12-28T20:30:13.631Z,2.00
2022-12-28T20:32:44.923Z,1.57
2022-12-28T20:35:13.123Z,2.20
2022-12-28T20:37:41.298Z,2.10
2022-12-28T20:40:09.964Z,1.60
2022-12-28T20:42:56.409Z,2.50
2022-12-28T20:45:27.183Z,1.60
2022-12-28T20:47:54.992Z,1.60
2022-12-28T20:50:22.735Z,2.20
2022-12-28T20:52:53.729Z,1.73
2022-12-28T20:55:21.545Z,1.90
2022-12-28T20:57:50.600Z,2.00
2022-12-28T21:00:19.036Z,2.30
2022-12-28T21:02:47.079Z,2.00
2022-12-28T21:05:15.384Z,2.40
2022-12-28T21:07:43.128Z,2.03
2022-12-28T21:10:11.099Z,2.10
2022-12-28T21:12:39.060Z,2.33
2022-12-28T21:15:09.650Z,2.83
2022-12-28T21:17:37.332Z,2.37
2022-12-28T21:20:05.557Z,2.40
2022-12-28T21:22:33.254Z,2.40
2022-12-28T21:25:00.982Z,2.80
2022-12-28T21:27:29.596Z,2.53
2022-12-28T21:29:57.272Z,2.97
2022-12-28T21:32:26.347Z,2.97
2022-12-28T21:34:54.067Z,3.67
2022-12-28T21:37:36.738Z,2.83
2022-12-28T21:40:06.507Z,2.33
2022-12-28T21:42:34.367Z,2.23
2022-12-28T21:45:02.237Z,2.17
2022-12-28T21:47:32.233Z,2.27
2022-12-28T21:50:00.037Z,2.20
2022-12-28T21:52:30.648Z,2.20
2022-12-28T21:55:18.474Z,1.90
2022-12-28T21:57:49.596Z,2.73
2022-12-28T22:00:31.543Z,2.17
2022-12-28T22:03:18.047Z,2.40
2022-12-28T22:06:03.860Z,2.20
2022-12-28T22:08:49.963Z,2.07
2022-12-28T22:11:35.889Z,2.00
2022-12-28T22:14:04.072Z,2.40
2022-12-28T22:16:33.853Z,2.30
2022-12-28T22:19:04.297Z,2.10
2022-12-28T22:21:32.457Z,2.50
2022-12-28T22:24:05.929Z,2.87
2022-12-28T22:26:33.657Z,2.17
2022-12-28T22:29:02.531Z,2.43
2022-12-28T22:31:30.408Z,2.67
2022-12-28T22:34:03.201Z,2.20
2022-12-28T22:36:35.876Z,1.93
2022-12-28T22:39:03.553Z,2.23
2022-12-28T22:41:31.315Z,1.97
2022-12-28T22:43:59.292Z,2.23
2022-12-28T22:46:26.971Z,2.10
2022-12-28T22:48:54.734Z,2.00
2022-12-28T22:51:22.422Z,1.80
2022-12-28T22:53:51.551Z,2.40
2022-12-28T22:56:20.701Z,2.40
2022-12-28T22:58:48.728Z,2.53
2022-12-28T23:01:18.330Z,2.77
2022-12-28T23:03:47.551Z,2.37
2022-12-28T23:06:17.301Z,2.43
2022-12-28T23:08:45.936Z,2.40
2022-12-28T23:14:41.076Z,2.27
2022-12-28T23:17:12.599Z,2.03
2022-12-28T23:19:58.344Z,2.20
2022-12-28T23:22:45.713Z,2.10
2022-12-28T23:25:48.259Z,2.17
2022-12-28T23:28:17.309Z,1.87
2022-12-28T23:30:49.514Z,2.40
2022-12-28T23:33:18.697Z,1.93
2022-12-28T23:35:46.726Z,2.00
2022-12-28T23:38:14.716Z,1.93
2022-12-28T23:40:42.930Z,2.93
2022-12-28T23:43:10.761Z,2.33
2022-12-28T23:45:39.105Z,1.97
2022-12-28T23:48:08.176Z,2.40
2022-12-28T23:50:35.947Z,1.60
2022-12-28T23:53:03.798Z,1.83
2022-12-28T23:55:31.508Z,1.93
2022-12-28T23:57:59.188Z,1.67
